sensor_id;sensor_type;location;lat;lon;timestamp;P1;durP1;ratioP1;P2;durP2;ratioP2
37655;SDS011;23498;50.958;3.124;2022-11-06T00:01:09;11.75;;;5.03;;
37655;SDS011;23498;50.958;3.124;2022-11-06T00:03:36;11.57;;;5.20;;
37655;SDS011;23498;50.958;3.124;2022-11-06T00:06:09;13.05;;;5.07;;
37655;SDS011;23498;50.958;3.124;2022-11-06T00:09:03;10.50;;;5.47;;
37655;SDS011;23498;50.958;3.124;2022-11-06T00:11:33;10.60;;;5.22;;
37655;SDS011;23498;50.958;3.124;2022-11-06T00:13:59;11.35;;;5.30;;
37655;SDS011;23498;50.958;3.124;2022-11-06T00:16:35;13.60;;;5.18;;
37655;SDS011;23498;50.958;3.124;2022-11-06T00:19:24;11.13;;;5.30;;
37655;SDS011;23498;50.958;3.124;2022-11-06T00:21:50;8.43;;;4.47;;
37655;SDS011;23498;50.958;3.124;2022-11-06T00:24:16;10.50;;;5.55;;
37655;SDS011;23498;50.958;3.124;2022-11-06T00:26:46;12.73;;;5.22;;
37655;SDS011;23498;50.958;3.124;2022-11-06T00:29:13;10.77;;;5.25;;
37655;SDS011;23498;50.958;3.124;2022-11-06T00:31:39;12.02;;;4.43;;
37655;SDS011;23498;50.958;3.124;2022-11-06T00:34:08;13.32;;;5.28;;
37655;SDS011;23498;50.958;3.124;2022-11-06T00:36:34;11.43;;;5.10;;
37655;SDS011;23498;50.958;3.124;2022-11-06T00:39:00;11.68;;;4.97;;
37655;SDS011;23498;50.958;3.124;2022-11-06T00:41:46;13.13;;;6.05;;
37655;SDS011;23498;50.958;3.124;2022-11-06T00:44:12;10.07;;;4.75;;
37655;SDS011;23498;50.958;3.124;2022-11-06T00:46:39;10.93;;;5.75;;
37655;SDS011;23498;50.958;3.124;2022-11-06T00:49:18;12.98;;;5.38;;
37655;SDS011;23498;50.958;3.124;2022-11-06T00:51:44;11.98;;;5.57;;
37655;SDS011;23498;50.958;3.124;2022-11-06T00:54:15;11.17;;;5.70;;
37655;SDS011;23498;50.958;3.124;2022-11-06T00:56:41;12.65;;;5.80;;
37655;SDS011;23498;50.958;3.124;2022-11-06T00:59:09;10.02;;;5.35;;
37655;SDS011;23498;50.958;3.124;2022-11-06T01:01:51;12.73;;;5.75;;
37655;SDS011;23498;50.958;3.124;2022-11-06T01:04:18;11.60;;;5.20;;
37655;SDS011;23498;50.958;3.124;2022-11-06T01:06:48;14.23;;;5.72;;
37655;SDS011;23498;50.958;3.124;2022-11-06T01:09:27;13.27;;;5.93;;
37655;SDS011;23498;50.958;3.124;2022-11-06T01:12:10;11.27;;;5.88;;
37655;SDS011;23498;50.958;3.124;2022-11-06T01:14:37;11.75;;;5.75;;
37655;SDS011;23498;50.958;3.124;2022-11-06T01:17:06;12.98;;;6.55;;
37655;SDS011;23498;50.958;3.124;2022-11-06T01:19:32;16.02;;;6.80;;
37655;SDS011;23498;50.958;3.124;2022-11-06T01:22:18;12.90;;;6.13;;
37655;SDS011;23498;50.958;3.124;2022-11-06T01:24:46;12.90;;;5.70;;
37655;SDS011;23498;50.958;3.124;2022-11-06T01:27:12;12.90;;;6.00;;
37655;SDS011;23498;50.958;3.124;2022-11-06T01:29:39;10.70;;;6.07;;
37655;SDS011;23498;50.958;3.124;2022-11-06T01:32:22;13.32;;;6.88;;
37655;SDS011;23498;50.958;3.124;2022-11-06T01:34:49;17.63;;;6.93;;
37655;SDS011;23498;50.958;3.124;2022-11-06T01:37:15;12.73;;;6.38;;
37655;SDS011;23498;50.958;3.124;2022-11-06T01:39:52;12.18;;;6.38;;
37655;SDS011;23498;50.958;3.124;2022-11-06T01:42:58;14.02;;;6.60;;
37655;SDS011;23498;50.958;3.124;2022-11-06T01:45:41;11.98;;;6.38;;
37655;SDS011;23498;50.958;3.124;2022-11-06T01:48:09;10.45;;;6.20;;
37655;SDS011;23498;50.958;3.124;2022-11-06T01:50:39;13.43;;;6.47;;
37655;SDS011;23498;50.958;3.124;2022-11-06T01:53:06;11.75;;;5.95;;
37655;SDS011;23498;50.958;3.124;2022-11-06T01:55:53;10.18;;;5.80;;
37655;SDS011;23498;50.958;3.124;2022-11-06T01:58:21;13.40;;;6.50;;
37655;SDS011;23498;50.958;3.124;2022-11-06T02:01:14;13.63;;;6.32;;
37655;SDS011;23498;50.958;3.124;2022-11-06T02:03:43;12.57;;;6.35;;
37655;SDS011;23498;50.958;3.124;2022-11-06T02:06:30;12.95;;;6.25;;
37655;SDS011;23498;50.958;3.124;2022-11-06T02:08:56;9.25;;;5.75;;
37655;SDS011;23498;50.958;3.124;2022-11-06T02:11:23;13.88;;;5.90;;
37655;SDS011;23498;50.958;3.124;2022-11-06T02:14:08;12.75;;;5.93;;
37655;SDS011;23498;50.958;3.124;2022-11-06T02:16:55;11.52;;;6.00;;
37655;SDS011;23498;50.958;3.124;2022-11-06T02:20:07;11.40;;;6.03;;
37655;SDS011;23498;50.958;3.124;2022-11-06T02:22:59;11.80;;;6.00;;
37655;SDS011;23498;50.958;3.124;2022-11-06T02:28:01;13.68;;;5.47;;
37655;SDS011;23498;50.958;3.124;2022-11-06T02:30:30;10.10;;;5.38;;
37655;SDS011;23498;50.958;3.124;2022-11-06T02:33:04;11.75;;;5.82;;
37655;SDS011;23498;50.958;3.124;2022-11-06T02:35:52;11.50;;;5.35;;
37655;SDS011;23498;50.958;3.124;2022-11-06T02:38:24;10.95;;;5.53;;
37655;SDS011;23498;50.958;3.124;2022-11-06T02:40:56;12.55;;;5.38;;
37655;SDS011;23498;50.958;3.124;2022-11-06T02:43:57;11.65;;;5.85;;
37655;SDS011;23498;50.958;3.124;2022-11-06T02:46:48;8.07;;;5.03;;
37655;SDS011;23498;50.958;3.124;2022-11-06T02:49:39;14.52;;;5.70;;
37655;SDS011;23498;50.958;3.124;2022-11-06T02:52:46;10.68;;;5.78;;
37655;SDS011;23498;50.958;3.124;2022-11-06T02:55:21;12.55;;;5.72;;
37655;SDS011;23498;50.958;3.124;2022-11-06T02:57:50;11.77;;;5.35;;
37655;SDS011;23498;50.958;3.124;2022-11-06T03:00:25;11.82;;;5.45;;
37655;SDS011;23498;50.958;3.124;2022-11-06T03:02:59;10.48;;;5.55;;
37655;SDS011;23498;50.958;3.124;2022-11-06T03:05:33;10.32;;;5.38;;
37655;SDS011;23498;50.958;3.124;2022-11-06T03:08:34;13.77;;;5.43;;
37655;SDS011;23498;50.958;3.124;2022-11-06T03:11:10;9.68;;;4.90;;
37655;SDS011;23498;50.958;3.124;2022-11-06T03:13:56;11.40;;;5.15;;
37655;SDS011;23498;50.958;3.124;2022-11-06T03:19:27;11.88;;;5.53;;
37655;SDS011;23498;50.958;3.124;2022-11-06T03:22:24;8.73;;;4.70;;
37655;SDS011;23498;50.958;3.124;2022-11-06T03:24:58;8.18;;;4.28;;
37655;SDS011;23498;50.958;3.124;2022-11-06T03:27:27;14.35;;;5.22;;
37655;SDS011;23498;50.958;3.124;2022-11-06T03:30:13;10.50;;;4.70;;
37655;SDS011;23498;50.958;3.124;2022-11-06T03:32:52;9.45;;;4.63;;
37655;SDS011;23498;50.958;3.124;2022-11-06T03:35:53;8.82;;;4.15;;
37655;SDS011;23498;50.958;3.124;2022-11-06T03:38:25;12.55;;;4.30;;
37655;SDS011;23498;50.958;3.124;2022-11-06T03:41:23;12.68;;;4.47;;
37655;SDS011;23498;50.958;3.124;2022-11-06T03:43:51;9.25;;;4.43;;
37655;SDS011;23498;50.958;3.124;2022-11-06T03:46:19;9.25;;;4.80;;
37655;SDS011;23498;50.958;3.124;2022-11-06T03:48:56;10.23;;;4.13;;
37655;SDS011;23498;50.958;3.124;2022-11-06T03:51:46;9.38;;;4.35;;
37655;SDS011;23498;50.958;3.124;2022-11-06T03:54:25;9.30;;;4.07;;
37655;SDS011;23498;50.958;3.124;2022-11-06T03:57:13;10.82;;;4.38;;
37655;SDS011;23498;50.958;3.124;2022-11-06T03:59:53;11.98;;;3.95;;
37655;SDS011;23498;50.958;3.124;2022-11-06T04:02:26;10.13;;;4.38;;
37655;SDS011;23498;50.958;3.124;2022-11-06T04:05:04;12.90;;;4.30;;
37655;SDS011;23498;50.958;3.124;2022-11-06T04:08:08;8.85;;;4.07;;
37655;SDS011;23498;50.958;3.124;2022-11-06T04:10:55;11.20;;;4.10;;
37655;SDS011;23498;50.958;3.124;2022-11-06T04:13:42;7.75;;;3.75;;
37655;SDS011;23498;50.958;3.124;2022-11-06T04:16:23;8.20;;;4.22;;
37655;SDS011;23498;50.958;3.124;2022-11-06T04:18:52;7.15;;;4.00;;
37655;SDS011;23498;50.958;3.124;2022-11-06T04:24:05;7.88;;;4.18;;
37655;SDS011;23498;50.958;3.124;2022-11-06T04:27:12;10.70;;;4.38;;
37655;SDS011;23498;50.958;3.124;2022-11-06T04:40:57;10.02;;;4.20;;
37655;SDS011;23498;50.958;3.124;2022-11-06T04:43:43;8.07;;;3.40;;
37655;SDS011;23498;50.958;3.124;2022-11-06T04:46:23;8.13;;;3.95;;
37655;SDS011;23498;50.958;3.124;2022-11-06T04:49:04;11.00;;;3.50;;
37655;SDS011;23498;50.958;3.124;2022-11-06T04:54:12;10.32;;;3.65;;
37655;SDS011;23498;50.958;3.124;2022-11-06T04:56:43;7.30;;;3.30;;
37655;SDS011;23498;50.958;3.124;2022-11-06T04:59:13;10.90;;;3.58;;
37655;SDS011;23498;50.958;3.124;2022-11-06T05:01:40;9.48;;;3.58;;
37655;SDS011;23498;50.958;3.124;2022-11-06T05:04:15;8.75;;;3.17;;
37655;SDS011;23498;50.958;3.124;2022-11-06T05:06:48;8.88;;;3.20;;
37655;SDS011;23498;50.958;3.124;2022-11-06T05:09:14;8.43;;;3.40;;
37655;SDS011;23498;50.958;3.124;2022-11-06T05:11:43;5.97;;;2.95;;
37655;SDS011;23498;50.958;3.124;2022-11-06T05:14:09;6.35;;;2.97;;
37655;SDS011;23498;50.958;3.124;2022-11-06T05:16:35;10.32;;;3.45;;
37655;SDS011;23498;50.958;3.124;2022-11-06T05:19:03;7.40;;;3.08;;
37655;SDS011;23498;50.958;3.124;2022-11-06T05:21:29;8.02;;;2.90;;
37655;SDS011;23498;50.958;3.124;2022-11-06T05:29:16;8.13;;;3.78;;
37655;SDS011;23498;50.958;3.124;2022-11-06T05:32:02;8.73;;;2.50;;
37655;SDS011;23498;50.958;3.124;2022-11-06T05:34:48;8.05;;;2.50;;
37655;SDS011;23498;50.958;3.124;2022-11-06T05:37:14;8.45;;;2.65;;
37655;SDS011;23498;50.958;3.124;2022-11-06T05:39:40;6.78;;;2.63;;
37655;SDS011;23498;50.958;3.124;2022-11-06T05:42:26;9.20;;;3.00;;
37655;SDS011;23498;50.958;3.124;2022-11-06T05:44:52;6.97;;;2.85;;
37655;SDS011;23498;50.958;3.124;2022-11-06T05:47:18;9.25;;;3.15;;
37655;SDS011;23498;50.958;3.124;2022-11-06T05:49:46;9.80;;;2.47;;
37655;SDS011;23498;50.958;3.124;2022-11-06T05:52:12;8.13;;;2.72;;
37655;SDS011;23498;50.958;3.124;2022-11-06T05:54:38;9.23;;;3.03;;
37655;SDS011;23498;50.958;3.124;2022-11-06T05:57:08;4.88;;;2.33;;
37655;SDS011;23498;50.958;3.124;2022-11-06T05:59:40;9.52;;;2.95;;
37655;SDS011;23498;50.958;3.124;2022-11-06T06:02:23;9.20;;;2.70;;
37655;SDS011;23498;50.958;3.124;2022-11-06T06:04:50;7.80;;;2.70;;
37655;SDS011;23498;50.958;3.124;2022-11-06T06:07:42;8.68;;;2.30;;
37655;SDS011;23498;50.958;3.124;2022-11-06T06:10:11;8.32;;;2.70;;
37655;SDS011;23498;50.958;3.124;2022-11-06T06:12:37;6.70;;;2.42;;
37655;SDS011;23498;50.958;3.124;2022-11-06T06:15:07;7.40;;;2.55;;
37655;SDS011;23498;50.958;3.124;2022-11-06T06:17:33;6.43;;;2.40;;
37655;SDS011;23498;50.958;3.124;2022-11-06T06:19:59;8.38;;;2.60;;
37655;SDS011;23498;50.958;3.124;2022-11-06T06:22:40;5.93;;;2.50;;
37655;SDS011;23498;50.958;3.124;2022-11-06T06:25:07;8.45;;;2.33;;
37655;SDS011;23498;50.958;3.124;2022-11-06T06:27:33;6.28;;;2.40;;
37655;SDS011;23498;50.958;3.124;2022-11-06T06:30:05;7.47;;;2.67;;
37655;SDS011;23498;50.958;3.124;2022-11-06T06:32:49;9.95;;;2.60;;
37655;SDS011;23498;50.958;3.124;2022-11-06T06:35:18;7.25;;;2.80;;
37655;SDS011;23498;50.958;3.124;2022-11-06T06:38:06;11.23;;;2.55;;
37655;SDS011;23498;50.958;3.124;2022-11-06T06:40:32;8.13;;;2.13;;
37655;SDS011;23498;50.958;3.124;2022-11-06T06:43:29;8.20;;;2.53;;
37655;SDS011;23498;50.958;3.124;2022-11-06T06:45:59;5.72;;;2.45;;
37655;SDS011;23498;50.958;3.124;2022-11-06T06:48:45;11.05;;;2.55;;
37655;SDS011;23498;50.958;3.124;2022-11-06T06:51:31;8.75;;;2.67;;
37655;SDS011;23498;50.958;3.124;2022-11-06T06:53:57;7.03;;;2.38;;
37655;SDS011;23498;50.958;3.124;2022-11-06T06:56:27;6.80;;;2.40;;
37655;SDS011;23498;50.958;3.124;2022-11-06T06:59:11;8.70;;;3.10;;
37655;SDS011;23498;50.958;3.124;2022-11-06T07:01:37;5.35;;;2.20;;
37655;SDS011;23498;50.958;3.124;2022-11-06T07:04:24;7.32;;;2.40;;
37655;SDS011;23498;50.958;3.124;2022-11-06T07:06:53;9.60;;;2.72;;
37655;SDS011;23498;50.958;3.124;2022-11-06T07:09:39;10.52;;;2.65;;
37655;SDS011;23498;50.958;3.124;2022-11-06T07:12:45;8.52;;;2.65;;
37655;SDS011;23498;50.958;3.124;2022-11-06T07:15:18;5.22;;;2.10;;
37655;SDS011;23498;50.958;3.124;2022-11-06T07:17:48;8.50;;;2.65;;
37655;SDS011;23498;50.958;3.124;2022-11-06T07:20:14;9.20;;;2.58;;
37655;SDS011;23498;50.958;3.124;2022-11-06T07:22:44;6.03;;;2.72;;
37655;SDS011;23498;50.958;3.124;2022-11-06T07:25:11;6.18;;;2.70;;
37655;SDS011;23498;50.958;3.124;2022-11-06T07:30:06;6.07;;;2.15;;
37655;SDS011;23498;50.958;3.124;2022-11-06T07:32:52;4.40;;;2.20;;
37655;SDS011;23498;50.958;3.124;2022-11-06T07:35:18;6.90;;;2.40;;
37655;SDS011;23498;50.958;3.124;2022-11-06T07:37:44;6.85;;;2.47;;
37655;SDS011;23498;50.958;3.124;2022-11-06T07:40:31;8.57;;;2.30;;
37655;SDS011;23498;50.958;3.124;2022-11-06T07:43:07;5.95;;;2.38;;
37655;SDS011;23498;50.958;3.124;2022-11-06T07:45:34;9.88;;;2.33;;
37655;SDS011;23498;50.958;3.124;2022-11-06T07:48:04;5.85;;;2.00;;
37655;SDS011;23498;50.958;3.124;2022-11-06T07:51:06;9.87;;;3.00;;
37655;SDS011;23498;50.958;3.124;2022-11-06T07:53:53;6.10;;;2.35;;
37655;SDS011;23498;50.958;3.124;2022-11-06T07:56:19;9.93;;;2.33;;
37655;SDS011;23498;50.958;3.124;2022-11-06T07:59:05;7.20;;;2.88;;
37655;SDS011;23498;50.958;3.124;2022-11-06T08:06:43;5.32;;;2.80;;
37655;SDS011;23498;50.958;3.124;2022-11-06T08:09:24;9.00;;;2.90;;
37655;SDS011;23498;50.958;3.124;2022-11-06T08:11:51;9.75;;;4.07;;
37655;SDS011;23498;50.958;3.124;2022-11-06T08:14:17;7.70;;;3.05;;
37655;SDS011;23498;50.958;3.124;2022-11-06T08:16:43;8.15;;;2.90;;
37655;SDS011;23498;50.958;3.124;2022-11-06T08:19:09;8.88;;;3.17;;
37655;SDS011;23498;50.958;3.124;2022-11-06T08:21:35;8.65;;;2.67;;
37655;SDS011;23498;50.958;3.124;2022-11-06T08:24:01;11.30;;;3.30;;
37655;SDS011;23498;50.958;3.124;2022-11-06T08:26:27;7.50;;;2.80;;
37655;SDS011;23498;50.958;3.124;2022-11-06T08:28:53;10.40;;;3.47;;
37655;SDS011;23498;50.958;3.124;2022-11-06T08:31:20;7.85;;;2.90;;
37655;SDS011;23498;50.958;3.124;2022-11-06T08:33:46;9.88;;;3.30;;
37655;SDS011;23498;50.958;3.124;2022-11-06T08:36:12;8.55;;;3.13;;
37655;SDS011;23498;50.958;3.124;2022-11-06T08:38:38;10.02;;;3.42;;
37655;SDS011;23498;50.958;3.124;2022-11-06T08:41:05;8.70;;;3.40;;
37655;SDS011;23498;50.958;3.124;2022-11-06T08:43:41;7.40;;;2.83;;
37655;SDS011;23498;50.958;3.124;2022-11-06T08:46:07;9.82;;;3.65;;
37655;SDS011;23498;50.958;3.124;2022-11-06T08:48:34;10.05;;;3.33;;
37655;SDS011;23498;50.958;3.124;2022-11-06T08:51:00;7.65;;;3.10;;
37655;SDS011;23498;50.958;3.124;2022-11-06T08:53:34;8.45;;;3.35;;
37655;SDS011;23498;50.958;3.124;2022-11-06T08:56:06;10.77;;;3.75;;
37655;SDS011;23498;50.958;3.124;2022-11-06T08:58:32;8.43;;;3.28;;
37655;SDS011;23498;50.958;3.124;2022-11-06T09:00:58;11.73;;;3.63;;
37655;SDS011;23498;50.958;3.124;2022-11-06T09:03:24;11.00;;;3.45;;
37655;SDS011;23498;50.958;3.124;2022-11-06T09:05:50;6.82;;;3.15;;
37655;SDS011;23498;50.958;3.124;2022-11-06T09:08:16;9.18;;;4.10;;
37655;SDS011;23498;50.958;3.124;2022-11-06T09:10:42;8.80;;;3.55;;
37655;SDS011;23498;50.958;3.124;2022-11-06T09:13:09;10.18;;;3.80;;
37655;SDS011;23498;50.958;3.124;2022-11-06T09:15:42;13.00;;;4.03;;
37655;SDS011;23498;50.958;3.124;2022-11-06T09:18:09;7.30;;;3.50;;
37655;SDS011;23498;50.958;3.124;2022-11-06T09:20:36;9.52;;;3.70;;
37655;SDS011;23498;50.958;3.124;2022-11-06T09:23:03;9.02;;;3.88;;
37655;SDS011;23498;50.958;3.124;2022-11-06T09:25:36;9.35;;;4.20;;
37655;SDS011;23498;50.958;3.124;2022-11-06T09:28:05;15.70;;;7.80;;
37655;SDS011;23498;50.958;3.124;2022-11-06T09:30:39;13.32;;;6.38;;
37655;SDS011;23498;50.958;3.124;2022-11-06T09:33:34;14.32;;;4.10;;
37655;SDS011;23498;50.958;3.124;2022-11-06T09:36:04;9.57;;;3.90;;
37655;SDS011;23498;50.958;3.124;2022-11-06T09:38:30;10.48;;;4.32;;
37655;SDS011;23498;50.958;3.124;2022-11-06T09:40:58;12.75;;;4.00;;
37655;SDS011;23498;50.958;3.124;2022-11-06T09:46:33;7.32;;;3.33;;
37655;SDS011;23498;50.958;3.124;2022-11-06T09:57:37;10.02;;;3.78;;
37655;SDS011;23498;50.958;3.124;2022-11-06T10:00:34;10.73;;;4.55;;
37655;SDS011;23498;50.958;3.124;2022-11-06T10:06:40;12.68;;;3.78;;
37655;SDS011;23498;50.958;3.124;2022-11-06T10:09:27;11.30;;;3.78;;
37655;SDS011;23498;50.958;3.124;2022-11-06T10:14:40;10.55;;;4.40;;
37655;SDS011;23498;50.958;3.124;2022-11-06T10:17:12;10.75;;;4.70;;
37655;SDS011;23498;50.958;3.124;2022-11-06T10:25:21;9.25;;;3.95;;
37655;SDS011;23498;50.958;3.124;2022-11-06T10:28:10;14.40;;;4.17;;
37655;SDS011;23498;50.958;3.124;2022-11-06T10:36:17;10.38;;;3.60;;
37655;SDS011;23498;50.958;3.124;2022-11-06T10:39:03;7.32;;;3.65;;
37655;SDS011;23498;50.958;3.124;2022-11-06T10:41:34;8.80;;;3.50;;
37655;SDS011;23498;50.958;3.124;2022-11-06T10:54:31;9.88;;;3.70;;
37655;SDS011;23498;50.958;3.124;2022-11-06T10:57:15;6.90;;;3.65;;
37655;SDS011;23498;50.958;3.124;2022-11-06T10:59:58;8.57;;;3.92;;
37655;SDS011;23498;50.958;3.124;2022-11-06T11:02:31;14.35;;;3.80;;
37655;SDS011;23498;50.958;3.124;2022-11-06T11:05:01;10.82;;;3.17;;
37655;SDS011;23498;50.958;3.124;2022-11-06T11:07:38;12.57;;;3.53;;
37655;SDS011;23498;50.958;3.124;2022-11-06T11:10:23;9.95;;;3.67;;
37655;SDS011;23498;50.958;3.124;2022-11-06T11:12:55;9.10;;;3.45;;
37655;SDS011;23498;50.958;3.124;2022-11-06T11:15:39;13.18;;;3.97;;
37655;SDS011;23498;50.958;3.124;2022-11-06T11:18:21;8.07;;;3.10;;
37655;SDS011;23498;50.958;3.124;2022-11-06T11:26:28;10.73;;;3.88;;
37655;SDS011;23498;50.958;3.124;2022-11-06T11:29:15;8.93;;;3.55;;
37655;SDS011;23498;50.958;3.124;2022-11-06T11:32:03;10.07;;;3.90;;
37655;SDS011;23498;50.958;3.124;2022-11-06T11:34:36;10.32;;;3.95;;
37655;SDS011;23498;50.958;3.124;2022-11-06T11:37:19;8.63;;;3.85;;
37655;SDS011;23498;50.958;3.124;2022-11-06T11:40:17;8.48;;;4.45;;
37655;SDS011;23498;50.958;3.124;2022-11-06T11:42:42;7.00;;;3.33;;
37655;SDS011;23498;50.958;3.124;2022-11-06T11:47:53;12.32;;;4.07;;
37655;SDS011;23498;50.958;3.124;2022-11-06T11:50:31;12.27;;;4.03;;
37655;SDS011;23498;50.958;3.124;2022-11-06T11:53:16;10.50;;;4.03;;
37655;SDS011;23498;50.958;3.124;2022-11-06T11:55:56;8.65;;;3.45;;
37655;SDS011;23498;50.958;3.124;2022-11-06T11:58:47;7.90;;;3.35;;
37655;SDS011;23498;50.958;3.124;2022-11-06T12:01:46;9.15;;;3.20;;
37655;SDS011;23498;50.958;3.124;2022-11-06T12:04:21;7.78;;;3.25;;
37655;SDS011;23498;50.958;3.124;2022-11-06T12:06:55;7.63;;;3.58;;
37655;SDS011;23498;50.958;3.124;2022-11-06T12:09:23;6.78;;;3.00;;
37655;SDS011;23498;50.958;3.124;2022-11-06T12:11:53;8.77;;;2.97;;
37655;SDS011;23498;50.958;3.124;2022-11-06T12:14:28;8.35;;;3.22;;
37655;SDS011;23498;50.958;3.124;2022-11-06T12:17:20;8.05;;;3.38;;
37655;SDS011;23498;50.958;3.124;2022-11-06T12:20:15;8.23;;;3.40;;
37655;SDS011;23498;50.958;3.124;2022-11-06T12:23:16;9.30;;;3.40;;
37655;SDS011;23498;50.958;3.124;2022-11-06T12:26:03;9.23;;;3.88;;
37655;SDS011;23498;50.958;3.124;2022-11-06T12:28:47;7.50;;;3.20;;
37655;SDS011;23498;50.958;3.124;2022-11-06T12:31:35;8.47;;;3.17;;
37655;SDS011;23498;50.958;3.124;2022-11-06T12:34:37;7.55;;;3.80;;
37655;SDS011;23498;50.958;3.124;2022-11-06T12:40:17;8.05;;;2.88;;
37655;SDS011;23498;50.958;3.124;2022-11-06T13:18:30;7.68;;;4.20;;
37655;SDS011;23498;50.958;3.124;2022-11-06T13:27:12;10.25;;;4.63;;
37655;SDS011;23498;50.958;3.124;2022-11-06T15:15:06;8.27;;;4.32;;
37655;SDS011;23498;50.958;3.124;2022-11-06T15:23:01;7.75;;;4.25;;
37655;SDS011;23498;50.958;3.124;2022-11-06T15:25:28;8.93;;;4.65;;
37655;SDS011;23498;50.958;3.124;2022-11-06T15:28:11;7.97;;;5.38;;
37655;SDS011;23498;50.958;3.124;2022-11-06T15:33:59;10.02;;;4.85;;
37655;SDS011;23498;50.958;3.124;2022-11-06T15:39:31;7.25;;;5.28;;
37655;SDS011;23498;50.958;3.124;2022-11-06T15:41:58;7.93;;;5.05;;
37655;SDS011;23498;50.958;3.124;2022-11-06T15:44:24;7.32;;;4.85;;
37655;SDS011;23498;50.958;3.124;2022-11-06T15:46:51;6.55;;;4.72;;
37655;SDS011;23498;50.958;3.124;2022-11-06T15:49:17;8.98;;;5.30;;
37655;SDS011;23498;50.958;3.124;2022-11-06T15:51:51;6.50;;;4.50;;
37655;SDS011;23498;50.958;3.124;2022-11-06T15:54:37;7.82;;;4.40;;
37655;SDS011;23498;50.958;3.124;2022-11-06T15:57:12;8.13;;;4.57;;
37655;SDS011;23498;50.958;3.124;2022-11-06T15:59:39;6.28;;;4.45;;
37655;SDS011;23498;50.958;3.124;2022-11-06T16:02:12;7.93;;;4.63;;
37655;SDS011;23498;50.958;3.124;2022-11-06T16:04:39;10.57;;;5.05;;
37655;SDS011;23498;50.958;3.124;2022-11-06T16:07:05;10.30;;;5.35;;
37655;SDS011;23498;50.958;3.124;2022-11-06T16:09:32;8.45;;;5.20;;
37655;SDS011;23498;50.958;3.124;2022-11-06T16:11:58;8.10;;;4.90;;
37655;SDS011;23498;50.958;3.124;2022-11-06T16:14:24;7.35;;;5.50;;
37655;SDS011;23498;50.958;3.124;2022-11-06T16:16:51;7.88;;;5.53;;
37655;SDS011;23498;50.958;3.124;2022-11-06T16:19:30;9.00;;;5.07;;
37655;SDS011;23498;50.958;3.124;2022-11-06T16:22:15;7.47;;;5.15;;
37655;SDS011;23498;50.958;3.124;2022-11-06T16:28:03;8.32;;;5.68;;
37655;SDS011;23498;50.958;3.124;2022-11-06T16:30:29;12.73;;;6.45;;
37655;SDS011;23498;50.958;3.124;2022-11-06T16:32:57;7.93;;;5.78;;
37655;SDS011;23498;50.958;3.124;2022-11-06T16:35:33;9.00;;;6.25;;
37655;SDS011;23498;50.958;3.124;2022-11-06T16:41:12;8.65;;;6.30;;
37655;SDS011;23498;50.958;3.124;2022-11-06T16:56:39;10.88;;;7.47;;
37655;SDS011;23498;50.958;3.124;2022-11-06T16:59:00;12.18;;;8.07;;
37655;SDS011;23498;50.958;3.124;2022-11-06T17:01:27;12.32;;;8.15;;
37655;SDS011;23498;50.958;3.124;2022-11-06T17:03:56;12.57;;;7.78;;
37655;SDS011;23498;50.958;3.124;2022-11-06T17:06:27;11.48;;;7.90;;
37655;SDS011;23498;50.958;3.124;2022-11-06T17:09:29;12.38;;;8.10;;
37655;SDS011;23498;50.958;3.124;2022-11-06T17:11:50;11.88;;;8.02;;
37655;SDS011;23498;50.958;3.124;2022-11-06T17:14:17;12.23;;;8.07;;
37655;SDS011;23498;50.958;3.124;2022-11-06T17:16:47;14.77;;;9.23;;
37655;SDS011;23498;50.958;3.124;2022-11-06T17:19:15;11.60;;;7.85;;
37655;SDS011;23498;50.958;3.124;2022-11-06T17:21:41;13.13;;;8.70;;
37655;SDS011;23498;50.958;3.124;2022-11-06T17:24:07;12.50;;;8.25;;
37655;SDS011;23498;50.958;3.124;2022-11-06T17:26:35;13.85;;;8.65;;
37655;SDS011;23498;50.958;3.124;2022-11-06T17:29:02;13.20;;;8.52;;
37655;SDS011;23498;50.958;3.124;2022-11-06T17:31:28;12.50;;;9.23;;
37655;SDS011;23498;50.958;3.124;2022-11-06T17:34:05;13.13;;;8.80;;
37655;SDS011;23498;50.958;3.124;2022-11-06T17:36:31;15.75;;;9.35;;
37655;SDS011;23498;50.958;3.124;2022-11-06T17:38:59;12.82;;;9.70;;
37655;SDS011;23498;50.958;3.124;2022-11-06T17:41:25;14.05;;;9.40;;
37655;SDS011;23498;50.958;3.124;2022-11-06T17:44:05;12.75;;;9.05;;
37655;SDS011;23498;50.958;3.124;2022-11-06T17:46:32;13.73;;;9.43;;
37655;SDS011;23498;50.958;3.124;2022-11-06T17:48:59;14.65;;;9.73;;
37655;SDS011;23498;50.958;3.124;2022-11-06T17:51:29;15.98;;;10.32;;
37655;SDS011;23498;50.958;3.124;2022-11-06T17:54:18;12.75;;;8.95;;
37655;SDS011;23498;50.958;3.124;2022-11-06T17:56:47;15.88;;;10.27;;
37655;SDS011;23498;50.958;3.124;2022-11-06T17:59:15;12.77;;;9.30;;
37655;SDS011;23498;50.958;3.124;2022-11-06T18:01:41;15.57;;;10.07;;
37655;SDS011;23498;50.958;3.124;2022-11-06T18:04:15;14.48;;;10.10;;
37655;SDS011;23498;50.958;3.124;2022-11-06T18:07:01;13.40;;;10.23;;
37655;SDS011;23498;50.958;3.124;2022-11-06T18:09:29;17.60;;;10.23;;
37655;SDS011;23498;50.958;3.124;2022-11-06T18:15:04;14.85;;;9.98;;
37655;SDS011;23498;50.958;3.124;2022-11-06T18:23:27;15.95;;;10.48;;
37655;SDS011;23498;50.958;3.124;2022-11-06T18:26:09;15.13;;;10.07;;
37655;SDS011;23498;50.958;3.124;2022-11-06T18:31:55;14.10;;;9.45;;
37655;SDS011;23498;50.958;3.124;2022-11-06T18:34:21;13.38;;;9.55;;
37655;SDS011;23498;50.958;3.124;2022-11-06T18:36:48;15.02;;;9.73;;
37655;SDS011;23498;50.958;3.124;2022-11-06T18:39:15;14.68;;;9.10;;
37655;SDS011;23498;50.958;3.124;2022-11-06T18:55:55;16.02;;;9.23;;
37655;SDS011;23498;50.958;3.124;2022-11-06T18:58:53;13.13;;;9.05;;
37655;SDS011;23498;50.958;3.124;2022-11-06T19:01:29;14.77;;;9.00;;
37655;SDS011;23498;50.958;3.124;2022-11-06T19:04:09;14.18;;;8.98;;
37655;SDS011;23498;50.958;3.124;2022-11-06T19:06:40;16.63;;;8.38;;
37655;SDS011;23498;50.958;3.124;2022-11-06T19:09:31;14.55;;;8.45;;
37655;SDS011;23498;50.958;3.124;2022-11-06T19:12:06;13.75;;;8.25;;
37655;SDS011;23498;50.958;3.124;2022-11-06T19:14:38;13.43;;;8.57;;
37655;SDS011;23498;50.958;3.124;2022-11-06T19:17:14;12.93;;;9.13;;
37655;SDS011;23498;50.958;3.124;2022-11-06T19:19:40;12.93;;;8.82;;
37655;SDS011;23498;50.958;3.124;2022-11-06T19:22:14;11.32;;;8.30;;
37655;SDS011;23498;50.958;3.124;2022-11-06T19:24:40;14.10;;;8.05;;
37655;SDS011;23498;50.958;3.124;2022-11-06T19:27:06;14.68;;;8.70;;
37655;SDS011;23498;50.958;3.124;2022-11-06T19:29:33;12.95;;;8.43;;
37655;SDS011;23498;50.958;3.124;2022-11-06T19:31:59;12.45;;;7.35;;
37655;SDS011;23498;50.958;3.124;2022-11-06T19:34:26;11.43;;;7.50;;
37655;SDS011;23498;50.958;3.124;2022-11-06T19:36:52;11.60;;;7.22;;
37655;SDS011;23498;50.958;3.124;2022-11-06T19:39:19;13.77;;;7.22;;
37655;SDS011;23498;50.958;3.124;2022-11-06T19:41:45;10.75;;;6.88;;
37655;SDS011;23498;50.958;3.124;2022-11-06T19:44:11;10.43;;;6.45;;
37655;SDS011;23498;50.958;3.124;2022-11-06T19:46:37;11.18;;;6.70;;
37655;SDS011;23498;50.958;3.124;2022-11-06T19:49:03;10.95;;;7.05;;
37655;SDS011;23498;50.958;3.124;2022-11-06T19:51:29;12.35;;;6.20;;
37655;SDS011;23498;50.958;3.124;2022-11-06T19:53:57;10.48;;;5.88;;
37655;SDS011;23498;50.958;3.124;2022-11-06T19:56:23;10.20;;;5.85;;
37655;SDS011;23498;50.958;3.124;2022-11-06T19:58:50;10.18;;;6.07;;
37655;SDS011;23498;50.958;3.124;2022-11-06T20:01:16;11.45;;;5.88;;
37655;SDS011;23498;50.958;3.124;2022-11-06T20:03:43;9.73;;;5.47;;
37655;SDS011;23498;50.958;3.124;2022-11-06T20:06:09;8.23;;;5.63;;
37655;SDS011;23498;50.958;3.124;2022-11-06T20:08:35;8.90;;;5.43;;
37655;SDS011;23498;50.958;3.124;2022-11-06T20:11:07;13.43;;;5.50;;
37655;SDS011;23498;50.958;3.124;2022-11-06T20:13:33;11.93;;;6.07;;